Terminal Aerodrome Forecast
Issued by NWS

Home | Current Version | Previous Version | Graphics & Text | Print | Product List | Glossary On
Versions: 1 2 3 4 5 6 7 8 9 10 11 12 13 14 15 16 17 18 19 20 21 22 23
000
FTUS43 KICT 251459 AAB
TAFHUT
TAF AMD
KHUT 251459Z 2515/2612 15012KT P6SM OVC015
      TEMPO 2515/2516 OVC008
     FM251700 18017G24KT P6SM BKN025
     FM251800 20009KT P6SM SCT250
     FM260600 17010KT P6SM SCT050
     FM260900 17010KT P6SM BKN008=

USA.gov is the U.S. government's official web portal to all federal, state and local government web resources and services.